tititudorancea.com
Station Historical Data
Daily Summary for Nil La, TWC- Units:  Both    English   Metric
« Previous Day
Next Day »
Daily Weekly Monthly Yearly Custom
  High: Low: Average:
Temperature: TemperatureF °F /  -17.8 °C 55.6 °F /  13.1 °C 61.9 °F /  16.6 °C
Dew Point: DewpointF °F /  -17.8 °C 52.4 °F /  11.3 °C 54 °F /  12.2 °C
Humidity: Humidity % 41 % 77 %
Wind Speed: WindSpeedMPH mph /  0 km/h - 4.5 mph /  7.2 km/h
Wind Gust: WindSpeedGustMPH mph /  0 km/h - -
Wind:- - SW
Pressure: PressureIn in /  0 hPa 29.96 in /  1014.4 hPa -
Precipitation: 0.00 in /  0 mm    
Historical Graphs
 
 
Ararat weather Find more about Weather in Ararat, AU


 



 


Tabular Data for Nil La, TWC-
Time Temperature Dew Point Pressure Wind Wind Speed Wind Gust Humidity Rainfall Rate (Hourly)
TemperatureF °F /  -17.8 °C DewpointF °F /  -17.8 °C PressureIn in /  0 hPa Calm     Humidity % HourlyPrecipIn in /  0 mm
00:02 61.9 °F /  16.6 °C 55.3 °F /  12.9 °C 29.96 in /  1014.4 hPa SE 12.2 mph /  19.6 km/h 19.6 mph /  31.5 km/h 79 % 0.00 in /  0 mm
00:07 61.8 °F /  16.6 °C 55.2 °F /  12.9 °C 29.96 in /  1014.4 hPa SE 13.9 mph /  22.4 km/h 17.3 mph /  27.8 km/h 79 % 0.00 in /  0 mm
00:12 61.7 °F /  16.5 °C 55.1 °F /  12.8 °C 29.96 in /  1014.4 hPa SSE 8.5 mph /  13.7 km/h 12.7 mph /  20.4 km/h 79 % 0.00 in /  0 mm
00:17 61.6 °F /  16.4 °C 55.4 °F /  13 °C 29.97 in /  1014.8 hPa ESE 0.8 mph /  1.3 km/h 3.5 mph /  5.6 km/h 80 % 0.00 in /  0 mm
00:22 61.5 °F /  16.4 °C 55.3 °F /  12.9 °C 29.97 in /  1014.8 hPa ESE 2.8 mph /  4.5 km/h 2.8 mph /  4.5 km/h 80 % 0.00 in /  0 mm
00:27 61.4 °F /  16.3 °C 55.2 °F /  12.9 °C 29.97 in /  1014.8 hPa North 5.6 mph /  9 km/h 9.2 mph /  14.8 km/h 80 % 0.00 in /  0 mm
00:32 61.3 °F /  16.3 °C 55.1 °F /  12.8 °C 29.97 in /  1014.8 hPa SE 5.6 mph /  9 km/h 9.2 mph /  14.8 km/h 80 % 0.00 in /  0 mm
00:37 61.2 °F /  16.2 °C 55.3 °F /  12.9 °C 29.97 in /  1014.8 hPa SE 3.5 mph /  5.6 km/h 8.1 mph /  13 km/h 81 % 0.00 in /  0 mm
00:42 61.1 °F /  16.2 °C 55.2 °F /  12.9 °C 29.97 in /  1014.8 hPa North 8.1 mph /  13 km/h 9.2 mph /  14.8 km/h 81 % 0.00 in /  0 mm
00:47 61.0 °F /  16.1 °C 55.1 °F /  12.8 °C 29.97 in /  1014.8 hPa SE 7.0 mph /  11.3 km/h 13.0 mph /  20.9 km/h 81 % 0.00 in /  0 mm
00:52 60.8 °F /  16 °C 54.9 °F /  12.7 °C 29.97 in /  1014.8 hPa SSE 10.0 mph /  16.1 km/h 13.8 mph /  22.2 km/h 81 % 0.00 in /  0 mm
00:57 60.8 °F /  16 °C 55.3 °F /  12.9 °C 29.97 in /  1014.8 hPa North 7.5 mph /  12.1 km/h 11.5 mph /  18.5 km/h 82 % 0.00 in /  0 mm
01:02 60.6 °F /  15.9 °C 55.1 °F /  12.8 °C 29.97 in /  1014.8 hPa SSE 8.6 mph /  13.8 km/h 13.8 mph /  22.2 km/h 82 % 0.00 in /  0 mm
01:07 60.5 °F /  15.8 °C 55.0 °F /  12.8 °C 29.97 in /  1014.8 hPa South 6.1 mph /  9.8 km/h 11.5 mph /  18.5 km/h 82 % 0.00 in /  0 mm
01:12 60.4 °F /  15.8 °C 54.9 °F /  12.7 °C 29.97 in /  1014.8 hPa SSE 7.8 mph /  12.6 km/h 8.1 mph /  13 km/h 82 % 0.00 in /  0 mm
01:17 60.3 °F /  15.7 °C 55.1 °F /  12.8 °C 29.97 in /  1014.8 hPa SSE 9.4 mph /  15.1 km/h 11.5 mph /  18.5 km/h 83 % 0.00 in /  0 mm
01:22 60.2 °F /  15.7 °C 55.0 °F /  12.8 °C 29.97 in /  1014.8 hPa SE 6.1 mph /  9.8 km/h 11.5 mph /  18.5 km/h 83 % 0.00 in /  0 mm
01:27 60.1 °F /  15.6 °C 54.9 °F /  12.7 °C 29.97 in /  1014.8 hPa SE 9.8 mph /  15.8 km/h 9.8 mph /  15.8 km/h 83 % 0.00 in /  0 mm
01:32 60.1 °F /  15.6 °C 54.9 °F /  12.7 °C 29.97 in /  1014.8 hPa SSE 9.4 mph /  15.1 km/h 13.0 mph /  20.9 km/h 83 % 0.00 in /  0 mm
01:37 60.0 °F /  15.6 °C 54.8 °F /  12.7 °C 29.98 in /  1015.1 hPa North 6.8 mph /  10.9 km/h 11.5 mph /  18.5 km/h 83 % 0.00 in /  0 mm
01:42 59.9 °F /  15.5 °C 54.7 °F /  12.6 °C 29.98 in /  1015.1 hPa SSE 5.9 mph /  9.5 km/h 10.4 mph /  16.7 km/h 83 % 0.00 in /  0 mm
01:47 59.8 °F /  15.4 °C 54.6 °F /  12.6 °C 29.98 in /  1015.1 hPa SSE 8.4 mph /  13.5 km/h 13.8 mph /  22.2 km/h 83 % 0.00 in /  0 mm
01:52 59.7 °F /  15.4 °C 54.5 °F /  12.5 °C 29.98 in /  1015.1 hPa SSE 4.9 mph /  7.9 km/h 9.2 mph /  14.8 km/h 83 % 0.00 in /  0 mm
01:57 59.5 °F /  15.3 °C 54.3 °F /  12.4 °C 29.98 in /  1015.1 hPa SSE 6.0 mph /  9.7 km/h 10.4 mph /  16.7 km/h 83 % 0.00 in /  0 mm
02:02 59.4 °F /  15.2 °C 54.6 °F /  12.6 °C 29.98 in /  1015.1 hPa SSE 7.7 mph /  12.4 km/h 10.0 mph /  16.1 km/h 84 % 0.00 in /  0 mm
02:07 59.4 °F /  15.2 °C 54.6 °F /  12.6 °C 29.98 in /  1015.1 hPa South 4.5 mph /  7.2 km/h 10.4 mph /  16.7 km/h 84 % 0.00 in /  0 mm
02:12 59.4 °F /  15.2 °C 54.6 °F /  12.6 °C 29.99 in /  1015.5 hPa South 3.2 mph /  5.1 km/h 6.9 mph /  11.1 km/h 84 % 0.00 in /  0 mm
02:17 59.3 °F /  15.2 °C 54.5 °F /  12.5 °C 29.98 in /  1015.1 hPa South 7.2 mph /  11.6 km/h 14.0 mph /  22.5 km/h 84 % 0.00 in /  0 mm
02:22 59.2 °F /  15.1 °C 54.4 °F /  12.4 °C 29.99 in /  1015.5 hPa South 4.6 mph /  7.4 km/h 4.6 mph /  7.4 km/h 84 % 0.00 in /  0 mm
02:28 59.2 °F /  15.1 °C 54.4 °F /  12.4 °C 29.99 in /  1015.5 hPa South 6.5 mph /  10.5 km/h 6.5 mph /  10.5 km/h 84 % 0.00 in /  0 mm
02:33 59.1 °F /  15.1 °C 54.3 °F /  12.4 °C 29.99 in /  1015.5 hPa South 5.0 mph /  8 km/h 8.0 mph /  12.9 km/h 84 % 0.00 in /  0 mm
02:38 59.0 °F /  15 °C 54.2 °F /  12.3 °C 29.98 in /  1015.1 hPa North 4.4 mph /  7.1 km/h 6.9 mph /  11.1 km/h 84 % 0.00 in /  0 mm
02:43 58.8 °F /  14.9 °C 54.0 °F /  12.2 °C 29.98 in /  1015.1 hPa South 7.1 mph /  11.4 km/h 9.0 mph /  14.5 km/h 84 % 0.00 in /  0 mm
02:48 58.6 °F /  14.8 °C 54.1 °F /  12.3 °C 29.98 in /  1015.1 hPa North 7.6 mph /  12.2 km/h 9.2 mph /  14.8 km/h 85 % 0.00 in /  0 mm
02:53 58.5 °F /  14.7 °C 54.0 °F /  12.2 °C 29.98 in /  1015.1 hPa North 4.1 mph /  6.6 km/h 9.2 mph /  14.8 km/h 85 % 0.00 in /  0 mm
02:58 58.4 °F /  14.7 °C 53.9 °F /  12.2 °C 29.98 in /  1015.1 hPa North 5.3 mph /  8.5 km/h 9.2 mph /  14.8 km/h 85 % 0.00 in /  0 mm
03:03 58.2 °F /  14.6 °C 53.7 °F /  12.1 °C 29.98 in /  1015.1 hPa South 3.6 mph /  5.8 km/h 8.1 mph /  13 km/h 85 % 0.00 in /  0 mm
03:08 58.1 °F /  14.5 °C 53.9 °F /  12.2 °C 29.98 in /  1015.1 hPa South 5.2 mph /  8.4 km/h 8.0 mph /  12.9 km/h 86 % 0.00 in /  0 mm
03:13 58.0 °F /  14.4 °C 53.8 °F /  12.1 °C 29.98 in /  1015.1 hPa South 3.0 mph /  4.8 km/h 4.0 mph /  6.4 km/h 86 % 0.00 in /  0 mm
03:18 57.8 °F /  14.3 °C 53.6 °F /  12 °C 29.98 in /  1015.1 hPa North 4.1 mph /  6.6 km/h 8.1 mph /  13 km/h 86 % 0.00 in /  0 mm
03:23 57.7 °F /  14.3 °C 53.5 °F /  11.9 °C 29.98 in /  1015.1 hPa North 4.0 mph /  6.4 km/h 5.8 mph /  9.3 km/h 86 % 0.00 in /  0 mm
03:28 57.6 °F /  14.2 °C 53.8 °F /  12.1 °C 29.98 in /  1015.1 hPa North 4.7 mph /  7.6 km/h 9.2 mph /  14.8 km/h 87 % 0.00 in /  0 mm
03:33 57.4 °F /  14.1 °C 53.6 °F /  12 °C 29.98 in /  1015.1 hPa North 3.6 mph /  5.8 km/h 9.2 mph /  14.8 km/h 87 % 0.00 in /  0 mm
03:38 57.4 °F /  14.1 °C 53.6 °F /  12 °C 29.98 in /  1015.1 hPa SSE 6.1 mph /  9.8 km/h 10.4 mph /  16.7 km/h 87 % 0.00 in /  0 mm
03:43 57.4 °F /  14.1 °C 53.6 °F /  12 °C 29.98 in /  1015.1 hPa SSE 4.7 mph /  7.6 km/h 8.1 mph /  13 km/h 87 % 0.00 in /  0 mm
03:48 57.3 °F /  14.1 °C 53.5 °F /  11.9 °C 29.98 in /  1015.1 hPa North 5.2 mph /  8.4 km/h 6.9 mph /  11.1 km/h 87 % 0.00 in /  0 mm
03:53 57.2 °F /  14 °C 53.4 °F /  11.9 °C 29.98 in /  1015.1 hPa SSE 4.7 mph /  7.6 km/h 8.0 mph /  12.9 km/h 87 % 0.00 in /  0 mm
03:58 57.1 °F /  13.9 °C 53.3 °F /  11.8 °C 29.98 in /  1015.1 hPa SSE 4.3 mph /  6.9 km/h 8.1 mph /  13 km/h 87 % 0.00 in /  0 mm
04:03 57.0 °F /  13.9 °C 53.2 °F /  11.8 °C 29.98 in /  1015.1 hPa North 4.3 mph /  6.9 km/h 9.2 mph /  14.8 km/h 87 % 0.00 in /  0 mm
04:08 56.9 °F /  13.8 °C 53.1 °F /  11.7 °C 29.98 in /  1015.1 hPa North 5.1 mph /  8.2 km/h 8.1 mph /  13 km/h 87 % 0.00 in /  0 mm
04:13 56.8 °F /  13.8 °C 53.3 °F /  11.8 °C 29.98 in /  1015.1 hPa South 6.5 mph /  10.5 km/h 11.5 mph /  18.5 km/h 88 % 0.00 in /  0 mm
04:18 56.7 °F /  13.7 °C 53.2 °F /  11.8 °C 29.98 in /  1015.1 hPa North 6.2 mph /  10 km/h 8.1 mph /  13 km/h 88 % 0.00 in /  0 mm
04:23 56.7 °F /  13.7 °C 53.2 °F /  11.8 °C 29.98 in /  1015.1 hPa North 6.1 mph /  9.8 km/h 9.2 mph /  14.8 km/h 88 % 0.00 in /  0 mm
04:28 56.6 °F /  13.7 °C 53.1 °F /  11.7 °C 29.98 in /  1015.1 hPa South 5.2 mph /  8.4 km/h 9.2 mph /  14.8 km/h 88 % 0.00 in /  0 mm
04:33 56.6 °F /  13.7 °C 53.1 °F /  11.7 °C 29.98 in /  1015.1 hPa South 4.4 mph /  7.1 km/h 9.2 mph /  14.8 km/h 88 % 0.00 in /  0 mm
04:39 56.5 °F /  13.6 °C 53.0 °F /  11.7 °C 29.98 in /  1015.1 hPa North 5.7 mph /  9.2 km/h 9.2 mph /  14.8 km/h 88 % 0.00 in /  0 mm
04:44 56.4 °F /  13.6 °C 52.9 °F /  11.6 °C 29.98 in /  1015.1 hPa South 6.3 mph /  10.1 km/h 9.2 mph /  14.8 km/h 88 % 0.00 in /  0 mm
04:49 56.4 °F /  13.6 °C 52.9 °F /  11.6 °C 29.98 in /  1015.1 hPa North 5.8 mph /  9.3 km/h 11.5 mph /  18.5 km/h 88 % 0.00 in /  0 mm
04:54 56.3 °F /  13.5 °C 52.8 °F /  11.6 °C 29.99 in /  1015.5 hPa South 4.5 mph /  7.2 km/h 6.0 mph /  9.7 km/h 88 % 0.00 in /  0 mm
04:59 56.2 °F /  13.4 °C 52.7 °F /  11.5 °C 29.98 in /  1015.1 hPa North 5.2 mph /  8.4 km/h 9.0 mph /  14.5 km/h 88 % 0.00 in /  0 mm
05:04 56.1 °F /  13.4 °C 52.9 °F /  11.6 °C 29.98 in /  1015.1 hPa South 5.8 mph /  9.3 km/h 9.2 mph /  14.8 km/h 89 % 0.00 in /  0 mm
05:09 56.1 °F /  13.4 °C 52.9 °F /  11.6 °C 29.98 in /  1015.1 hPa South 5.4 mph /  8.7 km/h 8.1 mph /  13 km/h 89 % 0.00 in /  0 mm
05:14 56.0 °F /  13.3 °C 52.8 °F /  11.6 °C 29.99 in /  1015.5 hPa South 6.3 mph /  10.1 km/h 7.0 mph /  11.3 km/h 89 % 0.00 in /  0 mm
05:19 56.0 °F /  13.3 °C 52.8 °F /  11.6 °C 29.99 in /  1015.5 hPa North 6.8 mph /  10.9 km/h 12.0 mph /  19.3 km/h 89 % 0.00 in /  0 mm
05:24 56.0 °F /  13.3 °C 52.8 °F /  11.6 °C 29.99 in /  1015.5 hPa North 5.4 mph /  8.7 km/h 9.2 mph /  14.8 km/h 89 % 0.00 in /  0 mm
05:29 56.0 °F /  13.3 °C 52.8 °F /  11.6 °C 29.99 in /  1015.5 hPa South 4.0 mph /  6.4 km/h 9.2 mph /  14.8 km/h 89 % 0.00 in /  0 mm
05:34 56.0 °F /  13.3 °C 52.8 °F /  11.6 °C 29.99 in /  1015.5 hPa South 3.1 mph /  5 km/h 10.4 mph /  16.7 km/h 89 % 0.00 in /  0 mm
05:39 56.0 °F /  13.3 °C 52.8 °F /  11.6 °C 29.99 in /  1015.5 hPa North 4.5 mph /  7.2 km/h 8.1 mph /  13 km/h 89 % 0.00 in /  0 mm
05:44 55.9 °F /  13.3 °C 52.7 °F /  11.5 °C 29.99 in /  1015.5 hPa South 3.8 mph /  6.1 km/h 8.1 mph /  13 km/h 89 % 0.00 in /  0 mm
05:49 56.0 °F /  13.3 °C 52.8 °F /  11.6 °C 29.99 in /  1015.5 hPa South 3.3 mph /  5.3 km/h 8.1 mph /  13 km/h 89 % 0.00 in /  0 mm
05:54 56.0 °F /  13.3 °C 52.8 °F /  11.6 °C 29.98 in /  1015.1 hPa South 2.8 mph /  4.5 km/h 6.9 mph /  11.1 km/h 89 % 0.00 in /  0 mm
05:59 56.0 °F /  13.3 °C 52.8 °F /  11.6 °C 29.99 in /  1015.5 hPa North 2.6 mph /  4.2 km/h 8.1 mph /  13 km/h 89 % 0.00 in /  0 mm
06:04 55.9 °F /  13.3 °C 52.7 °F /  11.5 °C 29.98 in /  1015.1 hPa North 5.2 mph /  8.4 km/h 9.2 mph /  14.8 km/h 89 % 0.00 in /  0 mm
06:09 55.9 °F /  13.3 °C 52.7 °F /  11.5 °C 29.99 in /  1015.5 hPa North 4.1 mph /  6.6 km/h 4.6 mph /  7.4 km/h 89 % 0.00 in /  0 mm
06:14 55.9 °F /  13.3 °C 52.7 °F /  11.5 °C 29.98 in /  1015.1 hPa South 3.1 mph /  5 km/h 4.6 mph /  7.4 km/h 89 % 0.00 in /  0 mm
06:19 55.8 °F /  13.2 °C 52.6 °F /  11.4 °C 29.98 in /  1015.1 hPa North 6.0 mph /  9.7 km/h 8.1 mph /  13 km/h 89 % 0.00 in /  0 mm
06:24 55.8 °F /  13.2 °C 52.6 °F /  11.4 °C 29.99 in /  1015.5 hPa North 5.0 mph /  8 km/h 6.9 mph /  11.1 km/h 89 % 0.00 in /  0 mm
06:29 55.8 °F /  13.2 °C 52.6 °F /  11.4 °C 29.99 in /  1015.5 hPa South 4.7 mph /  7.6 km/h 8.0 mph /  12.9 km/h 89 % 0.00 in /  0 mm
06:34 55.9 °F /  13.3 °C 52.7 °F /  11.5 °C 29.99 in /  1015.5 hPa South 4.4 mph /  7.1 km/h 6.9 mph /  11.1 km/h 89 % 0.00 in /  0 mm
06:39 55.9 °F /  13.3 °C 52.7 °F /  11.5 °C 29.99 in /  1015.5 hPa South 4.2 mph /  6.8 km/h 8.1 mph /  13 km/h 89 % 0.00 in /  0 mm
06:44 55.8 °F /  13.2 °C 52.6 °F /  11.4 °C 29.99 in /  1015.5 hPa South 4.1 mph /  6.6 km/h 6.9 mph /  11.1 km/h 89 % 0.00 in /  0 mm
06:49 55.8 °F /  13.2 °C 52.6 °F /  11.4 °C 29.99 in /  1015.5 hPa South 5.5 mph /  8.9 km/h 10.0 mph /  16.1 km/h 89 % 0.00 in /  0 mm
06:54 55.8 °F /  13.2 °C 52.6 °F /  11.4 °C 29.99 in /  1015.5 hPa North 5.5 mph /  8.9 km/h 7.0 mph /  11.3 km/h 89 % 0.00 in /  0 mm
06:59 55.8 °F /  13.2 °C 52.6 °F /  11.4 °C 29.99 in /  1015.5 hPa North 3.9 mph /  6.3 km/h 6.9 mph /  11.1 km/h 89 % 0.00 in /  0 mm
07:04 55.8 °F /  13.2 °C 52.6 °F /  11.4 °C 29.99 in /  1015.5 hPa South 3.5 mph /  5.6 km/h 6.9 mph /  11.1 km/h 89 % 0.00 in /  0 mm
07:09 55.7 °F /  13.2 °C 52.5 °F /  11.4 °C 29.99 in /  1015.5 hPa North 2.0 mph /  3.2 km/h 5.0 mph /  8 km/h 89 % 0.00 in /  0 mm
07:14 55.6 °F /  13.1 °C 52.4 °F /  11.3 °C 29.99 in /  1015.5 hPa South 2.1 mph /  3.4 km/h 5.8 mph /  9.3 km/h 89 % 0.00 in /  0 mm
07:19 55.6 °F /  13.1 °C 52.4 °F /  11.3 °C 29.99 in /  1015.5 hPa North 4.1 mph /  6.6 km/h 8.1 mph /  13 km/h 89 % 0.00 in /  0 mm
07:24 55.7 °F /  13.2 °C 52.5 °F /  11.4 °C 29.99 in /  1015.5 hPa South 4.5 mph /  7.2 km/h 8.1 mph /  13 km/h 89 % 0.00 in /  0 mm
07:29 55.8 °F /  13.2 °C 52.6 °F /  11.4 °C 30.00 in /  1015.8 hPa South 3.5 mph /  5.6 km/h 9.2 mph /  14.8 km/h 89 % 0.00 in /  0 mm
07:34 55.8 °F /  13.2 °C 52.6 °F /  11.4 °C 30.00 in /  1015.8 hPa North 5.3 mph /  8.5 km/h 8.1 mph /  13 km/h 89 % 0.00 in /  0 mm
07:39 56.0 °F /  13.3 °C 52.8 °F /  11.6 °C 30.00 in /  1015.8 hPa North 2.5 mph /  4 km/h 4.6 mph /  7.4 km/h 89 % 0.00 in /  0 mm
07:44 56.1 °F /  13.4 °C 52.9 °F /  11.6 °C 30.00 in /  1015.8 hPa North 3.1 mph /  5 km/h 4.6 mph /  7.4 km/h 89 % 0.00 in /  0 mm
07:49 56.3 °F /  13.5 °C 53.1 °F /  11.7 °C 30.00 in /  1015.8 hPa South 5.0 mph /  8 km/h 11.5 mph /  18.5 km/h 89 % 0.00 in /  0 mm
07:54 56.5 °F /  13.6 °C 53.3 °F /  11.8 °C 30.00 in /  1015.8 hPa South 2.9 mph /  4.7 km/h 8.1 mph /  13 km/h 89 % 0.00 in /  0 mm
08:00 56.8 °F /  13.8 °C 53.6 °F /  12 °C 30.00 in /  1015.8 hPa SSE 4.2 mph /  6.8 km/h 6.9 mph /  11.1 km/h 89 % 0.00 in /  0 mm
08:05 57.0 °F /  13.9 °C 53.5 °F /  11.9 °C 30.00 in /  1015.8 hPa North 4.0 mph /  6.4 km/h 8.1 mph /  13 km/h 88 % 0.00 in /  0 mm
08:10 57.4 °F /  14.1 °C 53.9 °F /  12.2 °C 30.00 in /  1015.8 hPa South 6.9 mph /  11.1 km/h 10.0 mph /  16.1 km/h 88 % 0.00 in /  0 mm
08:15 57.8 °F /  14.3 °C 54.0 °F /  12.2 °C 30.00 in /  1015.8 hPa SSE 4.0 mph /  6.4 km/h 6.9 mph /  11.1 km/h 87 % 0.00 in /  0 mm
08:20 58.1 °F /  14.5 °C 54.2 °F /  12.3 °C 30.00 in /  1015.8 hPa SE 5.0 mph /  8 km/h 9.2 mph /  14.8 km/h 87 % 0.00 in /  0 mm
08:25 58.6 °F /  14.8 °C 54.1 °F /  12.3 °C 30.00 in /  1015.8 hPa SSE 4.3 mph /  6.9 km/h 5.8 mph /  9.3 km/h 85 % 0.00 in /  0 mm
08:30 59.0 °F /  15 °C 54.5 °F /  12.5 °C 30.00 in /  1015.8 hPa SSE 3.2 mph /  5.1 km/h 5.8 mph /  9.3 km/h 85 % 0.00 in /  0 mm
08:35 59.4 °F /  15.2 °C 54.6 °F /  12.6 °C 30.01 in /  1016.1 hPa SSE 3.5 mph /  5.6 km/h 6.9 mph /  11.1 km/h 84 % 0.00 in /  0 mm
08:40 59.9 °F /  15.5 °C 54.7 °F /  12.6 °C 30.01 in /  1016.1 hPa North 2.4 mph /  3.9 km/h 3.5 mph /  5.6 km/h 83 % 0.00 in /  0 mm
08:46 60.4 °F /  15.8 °C 54.9 °F /  12.7 °C 30.01 in /  1016.1 hPa SSE 9.2 mph /  14.8 km/h 9.2 mph /  14.8 km/h 82 % 0.00 in /  0 mm
08:51 60.8 °F /  16 °C 54.9 °F /  12.7 °C 30.01 in /  1016.1 hPa SSE 3.0 mph /  4.8 km/h 5.8 mph /  9.3 km/h 81 % 0.00 in /  0 mm
08:56 61.2 °F /  16.2 °C 55.0 °F /  12.8 °C 30.01 in /  1016.1 hPa SSE 4.2 mph /  6.8 km/h 5.8 mph /  9.3 km/h 80 % 0.00 in /  0 mm
09:01 62.0 °F /  16.7 °C 55.4 °F /  13 °C 30.01 in /  1016.1 hPa SSE 2.8 mph /  4.5 km/h 5.0 mph /  8 km/h 79 % 0.00 in /  0 mm
09:06 62.6 °F /  17 °C 55.6 °F /  13.1 °C 30.01 in /  1016.1 hPa SSE 2.1 mph /  3.4 km/h 4.6 mph /  7.4 km/h 78 % 0.00 in /  0 mm
09:07 62.7 °F /  17.1 °C 55.7 °F /  13.2 °C 30.01 in /  1016.1 hPa SSE 2.4 mph /  3.9 km/h 4.6 mph /  7.4 km/h 78 % 0.00 in /  0 mm
09:12 63.5 °F /  17.5 °C 55.8 °F /  13.2 °C 30.01 in /  1016.1 hPa SSE 1.4 mph /  2.3 km/h 4.6 mph /  7.4 km/h 76 % 0.00 in /  0 mm
09:17 63.9 °F /  17.7 °C 55.4 °F /  13 °C 30.01 in /  1016.1 hPa SSE 2.0 mph /  3.2 km/h 3.5 mph /  5.6 km/h 74 % 0.00 in /  0 mm
09:22 64.2 °F /  17.9 °C 55.7 °F /  13.2 °C 30.01 in /  1016.1 hPa SSE 2.0 mph /  3.2 km/h 3.5 mph /  5.6 km/h 74 % 0.00 in /  0 mm
09:27 64.6 °F /  18.1 °C 55.7 °F /  13.2 °C 30.01 in /  1016.1 hPa SSE 2.0 mph /  3.2 km/h 5.0 mph /  8 km/h 73 % 0.00 in /  0 mm
09:32 64.8 °F /  18.2 °C 55.6 °F /  13.1 °C 30.01 in /  1016.1 hPa SSE 5.1 mph /  8.2 km/h 6.9 mph /  11.1 km/h 72 % 0.00 in /  0 mm
09:37 65.0 °F /  18.3 °C 55.4 °F /  13 °C 30.01 in /  1016.1 hPa SSE 3.6 mph /  5.8 km/h 4.6 mph /  7.4 km/h 71 % 0.00 in /  0 mm
09:42 65.5 °F /  18.6 °C 55.5 °F /  13.1 °C 30.01 in /  1016.1 hPa SSE 4.7 mph /  7.6 km/h 5.8 mph /  9.3 km/h 70 % 0.00 in /  0 mm
09:47 66.1 °F /  18.9 °C 55.6 °F /  13.1 °C 30.01 in /  1016.1 hPa SSE 5.4 mph /  8.7 km/h 6.9 mph /  11.1 km/h 69 % 0.00 in /  0 mm
09:52 66.7 °F /  19.3 °C 55.4 °F /  13 °C 30.01 in /  1016.1 hPa South 3.3 mph /  5.3 km/h 4.6 mph /  7.4 km/h 67 % 0.00 in /  0 mm
09:57 67.4 °F /  19.7 °C 55.6 °F /  13.1 °C 30.01 in /  1016.1 hPa North 2.9 mph /  4.7 km/h 5.8 mph /  9.3 km/h 66 % 0.00 in /  0 mm
10:02 67.7 °F /  19.8 °C 55.5 °F /  13.1 °C 30.01 in /  1016.1 hPa South 2.9 mph /  4.7 km/h 3.5 mph /  5.6 km/h 65 % 0.00 in /  0 mm
10:07 68.2 °F /  20.1 °C 56.0 °F /  13.3 °C 30.01 in /  1016.1 hPa South 1.5 mph /  2.4 km/h 3.5 mph /  5.6 km/h 65 % 0.00 in /  0 mm
10:12 69.3 °F /  20.7 °C 56.6 °F /  13.7 °C 30.01 in /  1016.1 hPa North 0.1 mph /  0.2 km/h 1.2 mph /  1.9 km/h 64 % 0.00 in /  0 mm
10:17 70.2 °F /  21.2 °C 56.1 °F /  13.4 °C 30.00 in /  1015.8 hPa South 2.5 mph /  4 km/h 3.5 mph /  5.6 km/h 61 % 0.00 in /  0 mm
10:22 70.4 °F /  21.3 °C 55.8 °F /  13.2 °C 30.00 in /  1015.8 hPa South 0.5 mph /  0.8 km/h 1.2 mph /  1.9 km/h 60 % 0.00 in /  0 mm
10:27 70.9 °F /  21.6 °C 56.3 °F /  13.5 °C 30.00 in /  1015.8 hPa Calm     60 % 0.00 in /  0 mm
10:32 71.9 °F /  22.2 °C 55.8 °F /  13.2 °C 30.00 in /  1015.8 hPa South 1.0 mph /  1.6 km/h 2.3 mph /  3.7 km/h 57 % 0.00 in /  0 mm
10:37 72.7 °F /  22.6 °C 56.1 °F /  13.4 °C 30.00 in /  1015.8 hPa North 0.5 mph /  0.8 km/h 2.3 mph /  3.7 km/h 56 % 0.00 in /  0 mm
10:42 73.3 °F /  22.9 °C 55.6 °F /  13.1 °C 30.00 in /  1015.8 hPa South 0.8 mph /  1.3 km/h 3.5 mph /  5.6 km/h 54 % 0.00 in /  0 mm
10:47 74.2 °F /  23.4 °C 56.0 °F /  13.3 °C 30.00 in /  1015.8 hPa South 0.2 mph /  0.3 km/h 1.2 mph /  1.9 km/h 53 % 0.00 in /  0 mm
10:52 75.1 °F /  23.9 °C 55.7 °F /  13.2 °C 30.00 in /  1015.8 hPa Calm   1.2 mph /  1.9 km/h 51 % 0.00 in /  0 mm
10:57 76.1 °F /  24.5 °C 56.1 °F /  13.4 °C 30.00 in /  1015.8 hPa ESE 3.6 mph /  5.8 km/h 6.9 mph /  11.1 km/h 50 % 0.00 in /  0 mm
11:02 76.5 °F /  24.7 °C 55.9 °F /  13.3 °C 29.99 in /  1015.5 hPa ESE 3.8 mph /  6.1 km/h 5.8 mph /  9.3 km/h 49 % 0.00 in /  0 mm
11:07 76.9 °F /  24.9 °C 55.7 °F /  13.2 °C 29.99 in /  1015.5 hPa ESE 3.0 mph /  4.8 km/h 5.0 mph /  8 km/h 48 % 0.00 in /  0 mm
11:12 76.8 °F /  24.9 °C 55.0 °F /  12.8 °C 29.99 in /  1015.5 hPa NNE 5.0 mph /  8 km/h 6.9 mph /  11.1 km/h 47 % 0.00 in /  0 mm
11:17 76.6 °F /  24.8 °C 54.9 °F /  12.7 °C 29.99 in /  1015.5 hPa NNE 2.1 mph /  3.4 km/h 4.6 mph /  7.4 km/h 47 % 0.00 in /  0 mm
11:22 77.2 °F /  25.1 °C 56.0 °F /  13.3 °C 29.99 in /  1015.5 hPa ENE 3.7 mph /  6 km/h 6.9 mph /  11.1 km/h 48 % 0.00 in /  0 mm
11:27 77.6 °F /  25.3 °C 55.8 °F /  13.2 °C 29.99 in /  1015.5 hPa NE 3.2 mph /  5.1 km/h 5.0 mph /  8 km/h 47 % 0.00 in /  0 mm
11:32 78.0 °F /  25.6 °C 56.1 °F /  13.4 °C 29.99 in /  1015.5 hPa North 6.8 mph /  10.9 km/h 9.2 mph /  14.8 km/h 47 % 0.00 in /  0 mm
11:37 78.0 °F /  25.6 °C 55.5 °F /  13.1 °C 29.99 in /  1015.5 hPa NNW 5.1 mph /  8.2 km/h 5.8 mph /  9.3 km/h 46 % 0.00 in /  0 mm
11:42 78.1 °F /  25.6 °C 56.2 °F /  13.4 °C 29.98 in /  1015.1 hPa NNW 1.7 mph /  2.7 km/h 3.5 mph /  5.6 km/h 47 % 0.00 in /  0 mm
11:47 79.3 °F /  26.3 °C 56.1 °F /  13.4 °C 29.98 in /  1015.1 hPa NNE 2.7 mph /  4.3 km/h 6.0 mph /  9.7 km/h 45 % 0.00 in /  0 mm
11:52 80.8 °F /  27.1 °C 56.9 °F /  13.8 °C 29.98 in /  1015.1 hPa NNE 1.7 mph /  2.7 km/h 3.5 mph /  5.6 km/h 44 % 0.00 in /  0 mm
11:57 80.8 °F /  27.1 °C 55.6 °F /  13.1 °C 29.97 in /  1014.8 hPa NE 6.1 mph /  9.8 km/h 8.1 mph /  13 km/h 42 % 0.00 in /  0 mm
12:02 80.6 °F /  27 °C 56.0 °F /  13.3 °C 29.97 in /  1014.8 hPa NNW 4.0 mph /  6.4 km/h 5.8 mph /  9.3 km/h 43 % 0.00 in /  0 mm
12:07 80.4 °F /  26.9 °C 55.9 °F /  13.3 °C 29.97 in /  1014.8 hPa NNW 2.6 mph /  4.2 km/h 3.5 mph /  5.6 km/h 43 % 0.00 in /  0 mm
12:12 80.9 °F /  27.2 °C 55.7 °F /  13.2 °C 29.97 in /  1014.8 hPa NNE 4.9 mph /  7.9 km/h 8.1 mph /  13 km/h 42 % 0.00 in /  0 mm
12:17 80.9 °F /  27.2 °C 56.3 °F /  13.5 °C 29.97 in /  1014.8 hPa NNE 0.8 mph /  1.3 km/h 2.3 mph /  3.7 km/h 43 % 0.00 in /  0 mm
12:22 81.8 °F /  27.7 °C 55.8 °F /  13.2 °C 29.97 in /  1014.8 hPa NNE 3.0 mph /  4.8 km/h 4.6 mph /  7.4 km/h 41 % 0.00 in /  0 mm
12:27 82.0 °F /  27.8 °C 56.0 °F /  13.3 °C 29.96 in /  1014.4 hPa North 6.0 mph /  9.7 km/h 9.2 mph /  14.8 km/h 41 % 0.00 in /  0 mm
12:32 81.7 °F /  27.6 °C 55.7 °F /  13.2 °C 29.96 in /  1014.4 hPa NNW 4.9 mph /  7.9 km/h 6.9 mph /  11.1 km/h 41 % 0.00 in /  0 mm
Ararat Weather
Compliments of Weather Underground - 1.25 mb
Click here to send mail.


ABOUT

Live weather data from Ararat, Victoria, Australia, 3377
Data uploaded from Cumulus every 5 minutes to Weather Underground.
This site then downloads the raw data for formatting and display.
Metric and imperial data can be displayed. Graphs and historical data available.
Includes Sun and Moon times and rain image live from BOM.

Check out Ararat Weather on Facebook, Twitter and Google +

Help support ongoing costs by checking out the ads





Follow @AraratWeather